sensor_id;sensor_type;location;lat;lon;timestamp;P1;durP1;ratioP1;P2;durP2;ratioP2
71172;SDS011;58875;51.996;4.504;2023-03-19T00:01:54;10.34;;;10.34;;
71172;SDS011;58875;51.996;4.504;2023-03-19T00:04:21;10.36;;;10.35;;
71172;SDS011;58875;51.996;4.504;2023-03-19T00:06:48;10.95;;;10.95;;
71172;SDS011;58875;51.996;4.504;2023-03-19T00:09:15;10.67;;;10.67;;
71172;SDS011;58875;51.996;4.504;2023-03-19T00:11:40;10.84;;;10.84;;
71172;SDS011;58875;51.996;4.504;2023-03-19T00:14:06;11.11;;;11.11;;
71172;SDS011;58875;51.996;4.504;2023-03-19T00:16:31;11.43;;;11.43;;
71172;SDS011;58875;51.996;4.504;2023-03-19T00:18:58;11.41;;;11.35;;
71172;SDS011;58875;51.996;4.504;2023-03-19T00:21:24;11.30;;;11.30;;
71172;SDS011;58875;51.996;4.504;2023-03-19T00:23:50;11.60;;;11.60;;
71172;SDS011;58875;51.996;4.504;2023-03-19T00:26:16;11.75;;;11.74;;
71172;SDS011;58875;51.996;4.504;2023-03-19T00:28:42;11.95;;;11.95;;
71172;SDS011;58875;51.996;4.504;2023-03-19T00:31:12;12.29;;;12.22;;
71172;SDS011;58875;51.996;4.504;2023-03-19T00:33:40;12.16;;;12.15;;
71172;SDS011;58875;51.996;4.504;2023-03-19T00:36:07;12.46;;;12.45;;
71172;SDS011;58875;51.996;4.504;2023-03-19T00:38:35;12.24;;;12.24;;
71172;SDS011;58875;51.996;4.504;2023-03-19T00:41:01;13.28;;;13.25;;
71172;SDS011;58875;51.996;4.504;2023-03-19T00:43:27;13.21;;;13.20;;
71172;SDS011;58875;51.996;4.504;2023-03-19T00:45:53;14.16;;;14.10;;
71172;SDS011;58875;51.996;4.504;2023-03-19T00:48:19;15.41;;;15.36;;
71172;SDS011;58875;51.996;4.504;2023-03-19T00:50:46;16.04;;;15.98;;
71172;SDS011;58875;51.996;4.504;2023-03-19T00:53:12;17.48;;;17.30;;
71172;SDS011;58875;51.996;4.504;2023-03-19T00:55:38;16.99;;;16.99;;
71172;SDS011;58875;51.996;4.504;2023-03-19T00:58:03;17.44;;;17.29;;
71172;SDS011;58875;51.996;4.504;2023-03-19T01:00:31;17.33;;;17.17;;
71172;SDS011;58875;51.996;4.504;2023-03-19T01:02:58;17.57;;;17.49;;
71172;SDS011;58875;51.996;4.504;2023-03-19T01:05:24;17.65;;;17.54;;
71172;SDS011;58875;51.996;4.504;2023-03-19T01:07:50;17.28;;;16.94;;
71172;SDS011;58875;51.996;4.504;2023-03-19T01:10:17;16.94;;;16.84;;
71172;SDS011;58875;51.996;4.504;2023-03-19T01:12:43;17.04;;;16.98;;
71172;SDS011;58875;51.996;4.504;2023-03-19T01:15:09;16.56;;;16.48;;
71172;SDS011;58875;51.996;4.504;2023-03-19T01:17:34;16.98;;;16.83;;
71172;SDS011;58875;51.996;4.504;2023-03-19T01:20:00;16.55;;;16.40;;
71172;SDS011;58875;51.996;4.504;2023-03-19T01:22:26;16.65;;;16.35;;
71172;SDS011;58875;51.996;4.504;2023-03-19T01:24:51;17.10;;;16.52;;
71172;SDS011;58875;51.996;4.504;2023-03-19T01:27:17;16.85;;;16.55;;
71172;SDS011;58875;51.996;4.504;2023-03-19T01:29:42;16.58;;;16.17;;
71172;SDS011;58875;51.996;4.504;2023-03-19T01:32:08;16.87;;;16.50;;
71172;SDS011;58875;51.996;4.504;2023-03-19T01:34:34;16.31;;;16.01;;
71172;SDS011;58875;51.996;4.504;2023-03-19T01:37:00;17.32;;;16.87;;
71172;SDS011;58875;51.996;4.504;2023-03-19T01:39:26;17.25;;;16.99;;
71172;SDS011;58875;51.996;4.504;2023-03-19T01:41:52;17.30;;;16.94;;
71172;SDS011;58875;51.996;4.504;2023-03-19T01:44:33;18.29;;;17.84;;
71172;SDS011;58875;51.996;4.504;2023-03-19T01:47:02;18.14;;;17.71;;
71172;SDS011;58875;51.996;4.504;2023-03-19T01:49:31;18.61;;;18.18;;
71172;SDS011;58875;51.996;4.504;2023-03-19T01:51:58;18.94;;;18.57;;
71172;SDS011;58875;51.996;4.504;2023-03-19T01:54:28;19.22;;;18.85;;
71172;SDS011;58875;51.996;4.504;2023-03-19T01:57:01;18.74;;;18.41;;
71172;SDS011;58875;51.996;4.504;2023-03-19T01:59:32;19.06;;;18.86;;
71172;SDS011;58875;51.996;4.504;2023-03-19T02:02:04;19.57;;;19.14;;
71172;SDS011;58875;51.996;4.504;2023-03-19T02:04:37;19.09;;;18.88;;
71172;SDS011;58875;51.996;4.504;2023-03-19T02:07:06;19.93;;;19.44;;
71172;SDS011;58875;51.996;4.504;2023-03-19T02:09:33;20.15;;;19.53;;
71172;SDS011;58875;51.996;4.504;2023-03-19T02:12:00;19.52;;;19.17;;
71172;SDS011;58875;51.996;4.504;2023-03-19T02:14:26;19.90;;;19.37;;
71172;SDS011;58875;51.996;4.504;2023-03-19T02:16:52;19.01;;;18.47;;
71172;SDS011;58875;51.996;4.504;2023-03-19T02:19:25;18.63;;;18.16;;
71172;SDS011;58875;51.996;4.504;2023-03-19T02:22:04;16.67;;;16.36;;
71172;SDS011;58875;51.996;4.504;2023-03-19T02:24:35;15.59;;;15.26;;
71172;SDS011;58875;51.996;4.504;2023-03-19T02:27:09;15.25;;;14.73;;
71172;SDS011;58875;51.996;4.504;2023-03-19T02:29:36;13.88;;;13.70;;
71172;SDS011;58875;51.996;4.504;2023-03-19T02:32:02;12.95;;;12.66;;
71172;SDS011;58875;51.996;4.504;2023-03-19T02:34:32;12.32;;;11.97;;
71172;SDS011;58875;51.996;4.504;2023-03-19T02:37:02;11.89;;;11.76;;
71172;SDS011;58875;51.996;4.504;2023-03-19T02:42:32;11.57;;;11.39;;
71172;SDS011;58875;51.996;4.504;2023-03-19T02:44:57;12.16;;;11.84;;
71172;SDS011;58875;51.996;4.504;2023-03-19T02:47:23;10.83;;;10.66;;
71172;SDS011;58875;51.996;4.504;2023-03-19T02:49:50;11.14;;;10.90;;
71172;SDS011;58875;51.996;4.504;2023-03-19T02:52:16;10.47;;;10.42;;
71172;SDS011;58875;51.996;4.504;2023-03-19T02:54:42;10.20;;;10.10;;
71172;SDS011;58875;51.996;4.504;2023-03-19T02:57:08;10.60;;;10.39;;
71172;SDS011;58875;51.996;4.504;2023-03-19T02:59:33;10.51;;;10.31;;
71172;SDS011;58875;51.996;4.504;2023-03-19T03:02:00;10.45;;;10.34;;
71172;SDS011;58875;51.996;4.504;2023-03-19T03:04:26;10.74;;;10.64;;
71172;SDS011;58875;51.996;4.504;2023-03-19T03:06:51;10.77;;;10.56;;
71172;SDS011;58875;51.996;4.504;2023-03-19T03:09:17;10.92;;;10.75;;
71172;SDS011;58875;51.996;4.504;2023-03-19T03:11:43;10.97;;;10.87;;
71172;SDS011;58875;51.996;4.504;2023-03-19T03:14:09;10.60;;;10.56;;
71172;SDS011;58875;51.996;4.504;2023-03-19T03:16:36;11.13;;;11.09;;
71172;SDS011;58875;51.996;4.504;2023-03-19T03:19:02;12.36;;;12.15;;
71172;SDS011;58875;51.996;4.504;2023-03-19T03:21:29;14.29;;;13.96;;
71172;SDS011;58875;51.996;4.504;2023-03-19T03:23:54;15.55;;;15.28;;
71172;SDS011;58875;51.996;4.504;2023-03-19T03:26:20;17.15;;;16.76;;
71172;SDS011;58875;51.996;4.504;2023-03-19T03:28:46;18.30;;;17.88;;
71172;SDS011;58875;51.996;4.504;2023-03-19T03:31:11;20.93;;;20.17;;
71172;SDS011;58875;51.996;4.504;2023-03-19T03:33:37;22.71;;;22.04;;
71172;SDS011;58875;51.996;4.504;2023-03-19T03:36:03;28.77;;;27.93;;
71172;SDS011;58875;51.996;4.504;2023-03-19T03:38:29;31.22;;;30.08;;
71172;SDS011;58875;51.996;4.504;2023-03-19T03:40:56;30.95;;;30.00;;
71172;SDS011;58875;51.996;4.504;2023-03-19T03:43:23;31.47;;;30.38;;
71172;SDS011;58875;51.996;4.504;2023-03-19T03:45:49;31.55;;;30.47;;
71172;SDS011;58875;51.996;4.504;2023-03-19T03:48:16;30.34;;;29.64;;
71172;SDS011;58875;51.996;4.504;2023-03-19T03:50:42;31.28;;;30.18;;
71172;SDS011;58875;51.996;4.504;2023-03-19T03:53:08;29.99;;;29.13;;
71172;SDS011;58875;51.996;4.504;2023-03-19T03:55:34;25.56;;;25.05;;
71172;SDS011;58875;51.996;4.504;2023-03-19T03:58:01;27.25;;;26.47;;
71172;SDS011;58875;51.996;4.504;2023-03-19T04:00:27;28.24;;;27.59;;
71172;SDS011;58875;51.996;4.504;2023-03-19T04:02:52;29.61;;;28.52;;
71172;SDS011;58875;51.996;4.504;2023-03-19T04:05:18;30.80;;;29.75;;
71172;SDS011;58875;51.996;4.504;2023-03-19T04:07:43;32.03;;;30.76;;
71172;SDS011;58875;51.996;4.504;2023-03-19T04:10:10;33.96;;;32.84;;
71172;SDS011;58875;51.996;4.504;2023-03-19T04:12:37;36.70;;;35.25;;
71172;SDS011;58875;51.996;4.504;2023-03-19T04:15:04;36.33;;;34.66;;
71172;SDS011;58875;51.996;4.504;2023-03-19T04:17:32;36.72;;;34.98;;
71172;SDS011;58875;51.996;4.504;2023-03-19T04:19:58;37.40;;;35.78;;
71172;SDS011;58875;51.996;4.504;2023-03-19T04:22:23;37.80;;;36.33;;
71172;SDS011;58875;51.996;4.504;2023-03-19T04:24:49;38.04;;;36.16;;
71172;SDS011;58875;51.996;4.504;2023-03-19T04:27:14;38.59;;;36.69;;
71172;SDS011;58875;51.996;4.504;2023-03-19T04:29:40;38.07;;;36.26;;
71172;SDS011;58875;51.996;4.504;2023-03-19T04:32:05;38.95;;;37.25;;
71172;SDS011;58875;51.996;4.504;2023-03-19T04:34:31;39.96;;;37.71;;
71172;SDS011;58875;51.996;4.504;2023-03-19T04:36:57;39.87;;;38.22;;
71172;SDS011;58875;51.996;4.504;2023-03-19T04:39:23;42.17;;;39.65;;
71172;SDS011;58875;51.996;4.504;2023-03-19T04:41:50;43.09;;;40.05;;
71172;SDS011;58875;51.996;4.504;2023-03-19T04:44:15;41.69;;;39.43;;
71172;SDS011;58875;51.996;4.504;2023-03-19T04:46:41;43.51;;;40.86;;
71172;SDS011;58875;51.996;4.504;2023-03-19T04:49:09;40.47;;;38.66;;
71172;SDS011;58875;51.996;4.504;2023-03-19T04:51:34;41.11;;;38.76;;
71172;SDS011;58875;51.996;4.504;2023-03-19T04:54:00;41.13;;;38.43;;
71172;SDS011;58875;51.996;4.504;2023-03-19T04:56:26;42.76;;;40.08;;
71172;SDS011;58875;51.996;4.504;2023-03-19T04:58:52;44.33;;;40.52;;
71172;SDS011;58875;51.996;4.504;2023-03-19T05:01:18;45.34;;;41.16;;
71172;SDS011;58875;51.996;4.504;2023-03-19T05:03:44;47.28;;;42.70;;
71172;SDS011;58875;51.996;4.504;2023-03-19T05:06:09;46.59;;;41.75;;
71172;SDS011;58875;51.996;4.504;2023-03-19T05:08:35;42.54;;;38.73;;
71172;SDS011;58875;51.996;4.504;2023-03-19T05:11:01;42.25;;;38.46;;
71172;SDS011;58875;51.996;4.504;2023-03-19T05:13:27;41.84;;;38.24;;
71172;SDS011;58875;51.996;4.504;2023-03-19T05:15:52;42.52;;;38.22;;
71172;SDS011;58875;51.996;4.504;2023-03-19T05:18:19;42.20;;;38.01;;
71172;SDS011;58875;51.996;4.504;2023-03-19T05:20:46;42.22;;;38.15;;
71172;SDS011;58875;51.996;4.504;2023-03-19T05:23:12;42.47;;;37.84;;
71172;SDS011;58875;51.996;4.504;2023-03-19T05:25:37;44.80;;;39.47;;
71172;SDS011;58875;51.996;4.504;2023-03-19T05:28:05;41.21;;;36.00;;
71172;SDS011;58875;51.996;4.504;2023-03-19T05:30:31;42.70;;;36.59;;
71172;SDS011;58875;51.996;4.504;2023-03-19T05:32:58;43.81;;;36.49;;
71172;SDS011;58875;51.996;4.504;2023-03-19T05:35:24;48.29;;;39.39;;
71172;SDS011;58875;51.996;4.504;2023-03-19T05:37:52;51.63;;;41.47;;
71172;SDS011;58875;51.996;4.504;2023-03-19T05:40:18;53.26;;;42.97;;
71172;SDS011;58875;51.996;4.504;2023-03-19T05:42:44;52.61;;;42.86;;
71172;SDS011;58875;51.996;4.504;2023-03-19T05:45:09;62.13;;;48.27;;
71172;SDS011;58875;51.996;4.504;2023-03-19T05:47:36;59.99;;;47.50;;
71172;SDS011;58875;51.996;4.504;2023-03-19T05:50:03;59.22;;;47.20;;
71172;SDS011;58875;51.996;4.504;2023-03-19T05:52:30;54.14;;;43.93;;
71172;SDS011;58875;51.996;4.504;2023-03-19T05:54:56;55.19;;;44.10;;
71172;SDS011;58875;51.996;4.504;2023-03-19T05:57:21;55.02;;;44.27;;
71172;SDS011;58875;51.996;4.504;2023-03-19T05:59:47;58.51;;;45.92;;
71172;SDS011;58875;51.996;4.504;2023-03-19T06:02:13;61.17;;;47.42;;
71172;SDS011;58875;51.996;4.504;2023-03-19T06:04:39;60.33;;;46.82;;
71172;SDS011;58875;51.996;4.504;2023-03-19T06:07:05;64.31;;;48.77;;
71172;SDS011;58875;51.996;4.504;2023-03-19T06:09:30;65.50;;;49.52;;
71172;SDS011;58875;51.996;4.504;2023-03-19T06:11:56;60.66;;;46.84;;
71172;SDS011;58875;51.996;4.504;2023-03-19T06:14:22;62.29;;;47.68;;
71172;SDS011;58875;51.996;4.504;2023-03-19T06:16:48;61.16;;;46.94;;
71172;SDS011;58875;51.996;4.504;2023-03-19T06:19:13;57.56;;;44.83;;
71172;SDS011;58875;51.996;4.504;2023-03-19T06:21:39;54.74;;;43.21;;
71172;SDS011;58875;51.996;4.504;2023-03-19T06:24:05;59.23;;;45.74;;
71172;SDS011;58875;51.996;4.504;2023-03-19T06:26:31;56.54;;;44.10;;
71172;SDS011;58875;51.996;4.504;2023-03-19T06:28:57;53.02;;;42.33;;
71172;SDS011;58875;51.996;4.504;2023-03-19T06:31:23;50.69;;;40.97;;
71172;SDS011;58875;51.996;4.504;2023-03-19T06:33:48;50.97;;;40.95;;
71172;SDS011;58875;51.996;4.504;2023-03-19T06:36:15;50.61;;;40.71;;
71172;SDS011;58875;51.996;4.504;2023-03-19T06:38:41;52.77;;;41.50;;
71172;SDS011;58875;51.996;4.504;2023-03-19T06:41:07;52.77;;;41.60;;
71172;SDS011;58875;51.996;4.504;2023-03-19T06:43:33;51.21;;;40.98;;
71172;SDS011;58875;51.996;4.504;2023-03-19T06:46:04;52.51;;;41.06;;
71172;SDS011;58875;51.996;4.504;2023-03-19T06:48:31;46.49;;;37.41;;
71172;SDS011;58875;51.996;4.504;2023-03-19T06:50:57;48.18;;;38.42;;
71172;SDS011;58875;51.996;4.504;2023-03-19T06:53:23;49.16;;;38.54;;
71172;SDS011;58875;51.996;4.504;2023-03-19T06:55:49;49.85;;;39.11;;
71172;SDS011;58875;51.996;4.504;2023-03-19T06:58:15;48.75;;;38.14;;
71172;SDS011;58875;51.996;4.504;2023-03-19T07:00:40;47.75;;;37.41;;
71172;SDS011;58875;51.996;4.504;2023-03-19T07:03:07;42.55;;;34.98;;
71172;SDS011;58875;51.996;4.504;2023-03-19T07:05:33;45.83;;;36.53;;
71172;SDS011;58875;51.996;4.504;2023-03-19T07:07:59;42.77;;;34.74;;
71172;SDS011;58875;51.996;4.504;2023-03-19T07:10:24;42.16;;;33.87;;
71172;SDS011;58875;51.996;4.504;2023-03-19T07:12:50;41.36;;;33.63;;
71172;SDS011;58875;51.996;4.504;2023-03-19T07:15:16;39.94;;;33.03;;
71172;SDS011;58875;51.996;4.504;2023-03-19T07:17:47;40.08;;;33.34;;
71172;SDS011;58875;51.996;4.504;2023-03-19T07:20:13;40.09;;;33.34;;
71172;SDS011;58875;51.996;4.504;2023-03-19T07:22:42;40.84;;;34.18;;
71172;SDS011;58875;51.996;4.504;2023-03-19T07:25:07;42.95;;;35.61;;
71172;SDS011;58875;51.996;4.504;2023-03-19T07:27:33;42.48;;;35.20;;
71172;SDS011;58875;51.996;4.504;2023-03-19T07:29:59;41.84;;;35.05;;
71172;SDS011;58875;51.996;4.504;2023-03-19T07:32:24;44.17;;;36.87;;
71172;SDS011;58875;51.996;4.504;2023-03-19T07:34:50;43.67;;;36.42;;
71172;SDS011;58875;51.996;4.504;2023-03-19T07:37:15;47.35;;;38.19;;
71172;SDS011;58875;51.996;4.504;2023-03-19T07:39:41;46.45;;;37.81;;
71172;SDS011;58875;51.996;4.504;2023-03-19T07:42:07;45.13;;;37.40;;
71172;SDS011;58875;51.996;4.504;2023-03-19T07:44:32;47.14;;;38.52;;
71172;SDS011;58875;51.996;4.504;2023-03-19T07:46:58;45.30;;;37.67;;
71172;SDS011;58875;51.996;4.504;2023-03-19T07:49:24;46.32;;;38.27;;
71172;SDS011;58875;51.996;4.504;2023-03-19T07:51:50;46.31;;;38.04;;
71172;SDS011;58875;51.996;4.504;2023-03-19T07:54:16;46.82;;;38.68;;
71172;SDS011;58875;51.996;4.504;2023-03-19T07:56:42;46.15;;;38.66;;
71172;SDS011;58875;51.996;4.504;2023-03-19T07:59:08;49.53;;;40.35;;
71172;SDS011;58875;51.996;4.504;2023-03-19T08:01:33;47.94;;;40.01;;
71172;SDS011;58875;51.996;4.504;2023-03-19T08:03:59;51.97;;;42.46;;
71172;SDS011;58875;51.996;4.504;2023-03-19T08:06:25;51.55;;;42.14;;
71172;SDS011;58875;51.996;4.504;2023-03-19T08:08:51;50.89;;;41.57;;
71172;SDS011;58875;51.996;4.504;2023-03-19T08:11:16;51.98;;;42.25;;
71172;SDS011;58875;51.996;4.504;2023-03-19T08:13:42;52.57;;;42.24;;
71172;SDS011;58875;51.996;4.504;2023-03-19T08:16:08;53.32;;;42.85;;
71172;SDS011;58875;51.996;4.504;2023-03-19T08:18:34;53.85;;;42.85;;
71172;SDS011;58875;51.996;4.504;2023-03-19T08:21:00;59.19;;;45.64;;
71172;SDS011;58875;51.996;4.504;2023-03-19T08:23:26;64.78;;;48.71;;
71172;SDS011;58875;51.996;4.504;2023-03-19T08:25:52;65.31;;;48.95;;
71172;SDS011;58875;51.996;4.504;2023-03-19T08:28:18;65.15;;;49.00;;
71172;SDS011;58875;51.996;4.504;2023-03-19T08:30:44;66.58;;;49.62;;
71172;SDS011;58875;51.996;4.504;2023-03-19T08:33:10;67.79;;;50.19;;
71172;SDS011;58875;51.996;4.504;2023-03-19T08:35:37;62.40;;;46.87;;
71172;SDS011;58875;51.996;4.504;2023-03-19T08:38:03;65.69;;;48.67;;
71172;SDS011;58875;51.996;4.504;2023-03-19T08:40:28;59.64;;;45.59;;
71172;SDS011;58875;51.996;4.504;2023-03-19T08:42:54;58.99;;;45.47;;
71172;SDS011;58875;51.996;4.504;2023-03-19T08:45:20;63.59;;;47.77;;
71172;SDS011;58875;51.996;4.504;2023-03-19T08:47:47;60.59;;;45.74;;
71172;SDS011;58875;51.996;4.504;2023-03-19T08:50:13;63.19;;;47.44;;
71172;SDS011;58875;51.996;4.504;2023-03-19T08:52:40;59.10;;;45.27;;
71172;SDS011;58875;51.996;4.504;2023-03-19T08:55:06;55.66;;;42.97;;
71172;SDS011;58875;51.996;4.504;2023-03-19T08:57:33;61.57;;;45.56;;
71172;SDS011;58875;51.996;4.504;2023-03-19T09:00:00;58.95;;;44.20;;
71172;SDS011;58875;51.996;4.504;2023-03-19T09:02:26;52.77;;;40.84;;
71172;SDS011;58875;51.996;4.504;2023-03-19T09:04:52;49.47;;;38.77;;
71172;SDS011;58875;51.996;4.504;2023-03-19T09:07:17;51.45;;;39.90;;
71172;SDS011;58875;51.996;4.504;2023-03-19T09:09:43;48.89;;;38.74;;
71172;SDS011;58875;51.996;4.504;2023-03-19T09:12:10;45.32;;;36.78;;
71172;SDS011;58875;51.996;4.504;2023-03-19T09:14:38;49.94;;;39.23;;
71172;SDS011;58875;51.996;4.504;2023-03-19T09:17:04;50.92;;;39.92;;
71172;SDS011;58875;51.996;4.504;2023-03-19T09:19:30;49.81;;;39.45;;
71172;SDS011;58875;51.996;4.504;2023-03-19T09:21:57;46.53;;;36.97;;
71172;SDS011;58875;51.996;4.504;2023-03-19T09:24:23;44.66;;;36.02;;
71172;SDS011;58875;51.996;4.504;2023-03-19T09:26:50;46.51;;;37.28;;
71172;SDS011;58875;51.996;4.504;2023-03-19T09:29:16;43.90;;;35.57;;
71172;SDS011;58875;51.996;4.504;2023-03-19T09:31:41;45.27;;;35.94;;
71172;SDS011;58875;51.996;4.504;2023-03-19T09:34:07;40.68;;;33.26;;
71172;SDS011;58875;51.996;4.504;2023-03-19T09:36:36;31.92;;;27.34;;
71172;SDS011;58875;51.996;4.504;2023-03-19T09:39:02;30.78;;;26.35;;
71172;SDS011;58875;51.996;4.504;2023-03-19T09:44:14;33.08;;;28.55;;
71172;SDS011;58875;51.996;4.504;2023-03-19T09:49:55;34.75;;;30.33;;
71172;SDS011;58875;51.996;4.504;2023-03-19T09:55:29;36.01;;;30.71;;
71172;SDS011;58875;51.996;4.504;2023-03-19T09:57:51;34.09;;;29.05;;
71172;SDS011;58875;51.996;4.504;2023-03-19T10:00:29;36.49;;;30.72;;
71172;SDS011;58875;51.996;4.504;2023-03-19T10:09:13;38.41;;;32.32;;
71172;SDS011;58875;51.996;4.504;2023-03-19T10:17:33;36.32;;;30.81;;
71172;SDS011;58875;51.996;4.504;2023-03-19T10:20:11;35.31;;;30.10;;
71172;SDS011;58875;51.996;4.504;2023-03-19T10:22:52;39.89;;;32.51;;
71172;SDS011;58875;51.996;4.504;2023-03-19T10:25:26;34.63;;;29.73;;
71172;SDS011;58875;51.996;4.504;2023-03-19T10:31:39;38.12;;;31.83;;
71172;SDS011;58875;51.996;4.504;2023-03-19T10:33:41;37.79;;;31.52;;
71172;SDS011;58875;51.996;4.504;2023-03-19T10:36:14;35.96;;;30.76;;
71172;SDS011;58875;51.996;4.504;2023-03-19T10:38:44;35.08;;;30.19;;
71172;SDS011;58875;51.996;4.504;2023-03-19T10:43:55;31.96;;;28.19;;
71172;SDS011;58875;51.996;4.504;2023-03-19T10:46:37;30.12;;;26.32;;
71172;SDS011;58875;51.996;4.504;2023-03-19T10:49:03;31.08;;;27.05;;
71172;SDS011;58875;51.996;4.504;2023-03-19T10:51:29;28.02;;;25.15;;
71172;SDS011;58875;51.996;4.504;2023-03-19T10:53:55;28.53;;;25.81;;
71172;SDS011;58875;51.996;4.504;2023-03-19T10:56:26;29.39;;;26.55;;
71172;SDS011;58875;51.996;4.504;2023-03-19T10:59:01;28.43;;;26.14;;
71172;SDS011;58875;51.996;4.504;2023-03-19T11:01:34;27.97;;;25.73;;
71172;SDS011;58875;51.996;4.504;2023-03-19T11:04:10;28.66;;;26.02;;
71172;SDS011;58875;51.996;4.504;2023-03-19T11:06:41;26.26;;;24.03;;
71172;SDS011;58875;51.996;4.504;2023-03-19T11:09:17;24.76;;;23.13;;
71172;SDS011;58875;51.996;4.504;2023-03-19T11:11:57;22.83;;;21.44;;
71172;SDS011;58875;51.996;4.504;2023-03-19T11:14:41;24.01;;;22.23;;
71172;SDS011;58875;51.996;4.504;2023-03-19T11:17:19;22.88;;;21.45;;
71172;SDS011;58875;51.996;4.504;2023-03-19T11:19:55;22.36;;;21.20;;
71172;SDS011;58875;51.996;4.504;2023-03-19T11:22:27;23.61;;;21.86;;
71172;SDS011;58875;51.996;4.504;2023-03-19T11:24:59;24.46;;;22.94;;
71172;SDS011;58875;51.996;4.504;2023-03-19T11:27:28;24.31;;;22.84;;
71172;SDS011;58875;51.996;4.504;2023-03-19T11:29:59;26.59;;;24.59;;
71172;SDS011;58875;51.996;4.504;2023-03-19T11:35:48;26.21;;;24.68;;
71172;SDS011;58875;51.996;4.504;2023-03-19T11:38:23;26.32;;;24.59;;
71172;SDS011;58875;51.996;4.504;2023-03-19T11:41:23;26.35;;;24.62;;
71172;SDS011;58875;51.996;4.504;2023-03-19T11:44:25;27.26;;;25.64;;
71172;SDS011;58875;51.996;4.504;2023-03-19T11:52:40;27.36;;;26.11;;
71172;SDS011;58875;51.996;4.504;2023-03-19T11:55:27;27.61;;;26.10;;
71172;SDS011;58875;51.996;4.504;2023-03-19T12:09:18;26.44;;;25.44;;
71172;SDS011;58875;51.996;4.504;2023-03-19T12:14:40;27.13;;;25.77;;
71172;SDS011;58875;51.996;4.504;2023-03-19T12:30:46;23.65;;;22.58;;
71172;SDS011;58875;51.996;4.504;2023-03-19T12:36:28;24.87;;;22.88;;
71172;SDS011;58875;51.996;4.504;2023-03-19T12:39:04;21.23;;;20.09;;
71172;SDS011;58875;51.996;4.504;2023-03-19T12:41:38;21.13;;;20.16;;
71172;SDS011;58875;51.996;4.504;2023-03-19T12:52:01;17.26;;;16.63;;
71172;SDS011;58875;51.996;4.504;2023-03-19T12:54:38;16.46;;;16.03;;
71172;SDS011;58875;51.996;4.504;2023-03-19T13:02:26;18.08;;;17.60;;
71172;SDS011;58875;51.996;4.504;2023-03-19T13:10:28;17.79;;;17.30;;
71172;SDS011;58875;51.996;4.504;2023-03-19T13:12:57;16.87;;;16.41;;
71172;SDS011;58875;51.996;4.504;2023-03-19T13:15:45;15.50;;;15.13;;
71172;SDS011;58875;51.996;4.504;2023-03-19T13:18:35;15.31;;;14.96;;
71172;SDS011;58875;51.996;4.504;2023-03-19T13:26:50;12.69;;;12.34;;
71172;SDS011;58875;51.996;4.504;2023-03-19T13:29:20;12.99;;;12.85;;
71172;SDS011;58875;51.996;4.504;2023-03-19T13:31:48;14.55;;;14.25;;
71172;SDS011;58875;51.996;4.504;2023-03-19T13:34:25;16.10;;;15.69;;
71172;SDS011;58875;51.996;4.504;2023-03-19T13:37:12;16.74;;;16.40;;
71172;SDS011;58875;51.996;4.504;2023-03-19T13:39:42;17.35;;;16.70;;
71172;SDS011;58875;51.996;4.504;2023-03-19T13:45:28;16.14;;;15.78;;
71172;SDS011;58875;51.996;4.504;2023-03-19T13:48:19;17.29;;;16.71;;
71172;SDS011;58875;51.996;4.504;2023-03-19T13:51:02;17.03;;;16.22;;
71172;SDS011;58875;51.996;4.504;2023-03-19T13:53:54;16.14;;;15.56;;
71172;SDS011;58875;51.996;4.504;2023-03-19T13:59:39;16.56;;;16.07;;
71172;SDS011;58875;51.996;4.504;2023-03-19T14:05:07;16.58;;;16.12;;
71172;SDS011;58875;51.996;4.504;2023-03-19T14:07:38;16.90;;;16.47;;
71172;SDS011;58875;51.996;4.504;2023-03-19T14:10:06;16.77;;;16.54;;
71172;SDS011;58875;51.996;4.504;2023-03-19T14:12:41;16.07;;;15.79;;
71172;SDS011;58875;51.996;4.504;2023-03-19T14:17:44;18.29;;;17.83;;
71172;SDS011;58875;51.996;4.504;2023-03-19T14:20:22;20.13;;;19.56;;
71172;SDS011;58875;51.996;4.504;2023-03-19T14:31:35;19.19;;;18.46;;
71172;SDS011;58875;51.996;4.504;2023-03-19T14:39:57;15.96;;;15.65;;
71172;SDS011;58875;51.996;4.504;2023-03-19T14:48:05;15.26;;;15.20;;
71172;SDS011;58875;51.996;4.504;2023-03-19T14:50:41;14.78;;;14.71;;
71172;SDS011;58875;51.996;4.504;2023-03-19T14:53:18;14.50;;;14.47;;
71172;SDS011;58875;51.996;4.504;2023-03-19T14:55:53;14.67;;;14.59;;
71172;SDS011;58875;51.996;4.504;2023-03-19T14:58:19;14.34;;;14.25;;
71172;SDS011;58875;51.996;4.504;2023-03-19T15:00:46;14.34;;;14.26;;
71172;SDS011;58875;51.996;4.504;2023-03-19T15:05:47;14.72;;;14.72;;
71172;SDS011;58875;51.996;4.504;2023-03-19T15:08:16;14.67;;;14.60;;
71172;SDS011;58875;51.996;4.504;2023-03-19T15:10:50;15.45;;;15.43;;
71172;SDS011;58875;51.996;4.504;2023-03-19T15:16:04;15.63;;;15.53;;
71172;SDS011;58875;51.996;4.504;2023-03-19T15:18:52;15.57;;;15.56;;
71172;SDS011;58875;51.996;4.504;2023-03-19T15:21:19;14.71;;;14.68;;
71172;SDS011;58875;51.996;4.504;2023-03-19T15:23:45;14.51;;;14.47;;
71172;SDS011;58875;51.996;4.504;2023-03-19T15:26:13;14.48;;;14.40;;
71172;SDS011;58875;51.996;4.504;2023-03-19T15:28:45;14.62;;;14.60;;
71172;SDS011;58875;51.996;4.504;2023-03-19T15:31:13;21.47;;;21.40;;
71172;SDS011;58875;51.996;4.504;2023-03-19T15:33:39;15.50;;;15.40;;
71172;SDS011;58875;51.996;4.504;2023-03-19T15:38:44;17.38;;;17.15;;
71172;SDS011;58875;51.996;4.504;2023-03-19T15:41:14;15.75;;;15.62;;
71172;SDS011;58875;51.996;4.504;2023-03-19T15:43:42;14.28;;;14.17;;
71172;SDS011;58875;51.996;4.504;2023-03-19T15:46:10;12.57;;;12.54;;
71172;SDS011;58875;51.996;4.504;2023-03-19T15:52:01;14.51;;;14.45;;
71172;SDS011;58875;51.996;4.504;2023-03-19T15:54:32;14.56;;;14.44;;
71172;SDS011;58875;51.996;4.504;2023-03-19T15:56:58;14.44;;;14.22;;
71172;SDS011;58875;51.996;4.504;2023-03-19T15:59:25;14.82;;;14.70;;
71172;SDS011;58875;51.996;4.504;2023-03-19T16:01:56;16.98;;;16.76;;
71172;SDS011;58875;51.996;4.504;2023-03-19T16:04:24;18.94;;;18.75;;
71172;SDS011;58875;51.996;4.504;2023-03-19T16:06:53;19.82;;;19.46;;
71172;SDS011;58875;51.996;4.504;2023-03-19T16:09:23;22.96;;;22.31;;
71172;SDS011;58875;51.996;4.504;2023-03-19T16:11:59;23.38;;;23.00;;
71172;SDS011;58875;51.996;4.504;2023-03-19T16:17:13;24.68;;;24.13;;
71172;SDS011;58875;51.996;4.504;2023-03-19T16:22:24;19.83;;;19.51;;
71172;SDS011;58875;51.996;4.504;2023-03-19T16:24:54;18.22;;;18.00;;
71172;SDS011;58875;51.996;4.504;2023-03-19T16:27:31;18.51;;;18.21;;
71172;SDS011;58875;51.996;4.504;2023-03-19T16:30:00;18.16;;;17.96;;
71172;SDS011;58875;51.996;4.504;2023-03-19T16:32:27;20.04;;;19.65;;
71172;SDS011;58875;51.996;4.504;2023-03-19T16:34:54;21.23;;;20.60;;
71172;SDS011;58875;51.996;4.504;2023-03-19T16:42:48;22.83;;;21.23;;
71172;SDS011;58875;51.996;4.504;2023-03-19T16:45:17;22.21;;;20.59;;
71172;SDS011;58875;51.996;4.504;2023-03-19T16:47:45;23.32;;;21.55;;
71172;SDS011;58875;51.996;4.504;2023-03-19T16:50:16;22.22;;;20.18;;
71172;SDS011;58875;51.996;4.504;2023-03-19T16:52:44;22.74;;;20.40;;
71172;SDS011;58875;51.996;4.504;2023-03-19T16:55:17;20.17;;;18.81;;
71172;SDS011;58875;51.996;4.504;2023-03-19T16:57:55;20.63;;;19.40;;